Time,TemperatureF,DewpointF,PressureIn,WindDirection,WindDirectionDegrees,WindSpeedMPH,WindSpeedGustMPH,Humidity,HourlyPrecipIn,Conditions,Clouds,dailyrainin,SoftwareType,DateUTC
2013-01-13 00:00:00,2.1,-2.4,30.23,NW,316,1.0,1.0,81,0.00,,,0.00,Wunderground v.1.15,2013-01-13 06:00:00,
2013-01-13 00:05:00,2.0,-2.5,30.22,NW,324,2.0,2.0,81,0.00,,,0.00,Wunderground v.1.15,2013-01-13 06:05:00,
2013-01-13 00:10:00,2.0,-2.5,30.22,NW,308,2.0,2.0,81,0.00,,,0.00,Wunderground v.1.15,2013-01-13 06:10:00,
2013-01-13 00:19:00,2.0,-2.2,30.22,NW,313,2.0,2.0,82,0.00,,,0.00,Wunderground v.1.15,2013-01-13 06:19:00,
2013-01-13 00:25:00,1.9,-2.3,30.22,NW,324,2.0,2.0,82,0.00,,,0.00,Wunderground v.1.15,2013-01-13 06:25:00,
2013-01-13 00:30:00,1.9,-2.3,30.22,NW,314,2.0,3.0,82,0.00,,,0.00,Wunderground v.1.15,2013-01-13 06:30:00,
2013-01-13 00:40:00,1.8,-2.7,30.22,NW,315,2.0,3.0,81,0.00,,,0.00,Wunderground v.1.15,2013-01-13 06:40:00,
2013-01-13 00:45:00,1.7,-2.8,30.21,NW,317,3.0,5.0,81,0.00,,,0.00,Wunderground v.1.15,2013-01-13 06:45:00,
2013-01-13 00:50:00,1.7,-2.8,30.22,WNW,289,3.0,3.0,81,0.00,,,0.00,Wunderground v.1.15,2013-01-13 06:50:00,
2013-01-13 01:00:00,1.7,-3.0,30.22,NNW,333,2.0,2.0,80,0.00,,,0.00,Wunderground v.1.15,2013-01-13 07:00:00,
2013-01-13 01:05:00,1.7,-3.0,30.23,NW,305,2.0,2.0,80,0.00,,,0.00,Wunderground v.1.15,2013-01-13 07:05:00,
2013-01-13 01:15:00,1.7,-3.0,30.23,WNW,295,3.0,3.0,80,0.00,,,0.00,Wunderground v.1.15,2013-01-13 07:15:00,
2013-01-13 01:25:00,1.7,-3.0,30.23,NW,312,3.0,4.0,80,0.00,,,0.00,Wunderground v.1.15,2013-01-13 07:25:00,
2013-01-13 01:30:00,1.6,-3.1,30.23,NW,306,2.0,5.0,80,0.00,,,0.00,Wunderground v.1.15,2013-01-13 07:30:00,
2013-01-13 01:40:00,1.5,-3.0,30.23,WNW,303,2.0,2.0,81,0.00,,,0.00,Wunderground v.1.15,2013-01-13 07:40:00,
2013-01-13 01:45:00,1.5,-3.0,30.22,WNW,300,1.0,2.0,81,0.00,,,0.00,Wunderground v.1.15,2013-01-13 07:45:00,
2013-01-13 01:55:00,1.3,-3.2,30.22,WNW,300,2.0,2.0,81,0.00,,,0.00,Wunderground v.1.15,2013-01-13 07:55:00,
2013-01-13 02:00:00,1.3,-3.2,30.22,WNW,303,2.0,4.0,81,0.00,,,0.00,Wunderground v.1.15,2013-01-13 08:00:00,
2013-01-13 02:05:00,1.3,-3.2,30.22,NNW,340,2.0,4.0,81,0.00,,,0.00,Wunderground v.1.15,2013-01-13 08:05:00,
2013-01-13 02:15:00,1.3,-3.2,30.22,NNW,343,2.0,3.0,81,0.00,,,0.00,Wunderground v.1.15,2013-01-13 08:15:00,
2013-01-13 02:25:00,1.2,-3.3,30.22,NW,315,2.0,5.0,81,0.00,,,0.00,Wunderground v.1.15,2013-01-13 08:25:00,
2013-01-13 02:30:00,1.2,-3.3,30.22,NW,326,3.0,3.0,81,0.00,,,0.00,Wunderground v.1.15,2013-01-13 08:30:00,
2013-01-13 02:40:00,1.2,-3.3,30.22,NW,320,3.0,3.0,81,0.00,,,0.00,Wunderground v.1.15,2013-01-13 08:40:00,
2013-01-13 02:45:00,1.2,-3.3,30.22,NNW,335,3.0,3.0,81,0.00,,,0.00,Wunderground v.1.15,2013-01-13 08:45:00,
2013-01-13 02:50:00,1.2,-3.0,30.22,WNW,283,2.0,2.0,82,0.00,,,0.00,Wunderground v.1.15,2013-01-13 08:50:00,
2013-01-13 03:00:00,1.2,-3.3,30.22,NW,310,2.0,2.0,81,0.00,,,0.00,Wunderground v.1.15,2013-01-13 09:00:00,
2013-01-13 03:05:00,1.2,-3.0,30.23,NNW,331,2.0,2.0,82,0.00,,,0.00,Wunderground v.1.15,2013-01-13 09:05:00,
2013-01-13 03:15:00,1.1,-3.1,30.23,NW,321,2.0,2.0,82,0.00,,,0.00,Wunderground v.1.15,2013-01-13 09:15:00,
2013-01-13 03:24:00,1.0,-3.5,30.23,NW,325,2.0,4.0,81,0.00,,,0.00,Wunderground v.1.15,2013-01-13 09:24:00,
2013-01-13 03:30:00,1.0,-3.2,30.23,NW,319,3.0,3.0,82,0.00,,,0.00,Wunderground v.1.15,2013-01-13 09:30:00,
2013-01-13 03:35:00,0.9,-3.3,30.23,NW,320,3.0,3.0,82,0.00,,,0.00,Wunderground v.1.15,2013-01-13 09:35:00,
2013-01-13 03:45:00,0.7,-3.8,30.23,NW,310,2.0,3.0,81,0.00,,,0.00,Wunderground v.1.15,2013-01-13 09:45:00,
2013-01-13 03:50:00,0.6,-3.9,30.23,NW,306,2.0,4.0,81,0.00,,,0.00,Wunderground v.1.15,2013-01-13 09:50:00,
2013-01-13 04:00:00,0.5,-4.0,30.23,WNW,291,3.0,3.0,81,0.00,,,0.00,Wunderground v.1.15,2013-01-13 10:00:00,
2013-01-13 04:05:00,0.4,-4.1,30.23,WNW,292,3.0,3.0,81,0.00,,,0.00,Wunderground v.1.15,2013-01-13 10:05:00,
2013-01-13 04:15:00,0.3,-4.2,30.24,NNW,329,3.0,4.0,81,0.00,,,0.00,Wunderground v.1.15,2013-01-13 10:15:00,
2013-01-13 04:25:00,0.1,-4.6,30.24,West,279,4.0,5.0,80,0.00,,,0.00,Wunderground v.1.15,2013-01-13 10:25:00,
2013-01-13 04:30:00,0.0,-4.7,30.24,NW,305,4.0,5.0,80,0.00,,,0.00,Wunderground v.1.15,2013-01-13 10:30:00,
2013-01-13 04:35:00,0.0,-4.7,30.25,NW,317,4.0,5.0,80,0.00,,,0.00,Wunderground v.1.15,2013-01-13 10:35:00,
2013-01-13 04:45:00,-0.1,-4.8,30.24,NW,312,3.0,5.0,80,0.00,,,0.00,Wunderground v.1.15,2013-01-13 10:45:00,
2013-01-13 04:50:00,-0.2,-4.6,30.24,WNW,289,4.0,4.0,81,0.00,,,0.00,Wunderground v.1.15,2013-01-13 10:50:00,
2013-01-13 04:55:00,-0.3,-5.0,30.23,NNW,339,3.0,4.0,80,0.00,,,0.00,Wunderground v.1.15,2013-01-13 10:55:00,
2013-01-13 05:05:00,-0.4,-4.8,30.23,NW,310,4.0,4.0,81,0.00,,,0.00,Wunderground v.1.15,2013-01-13 11:05:00,
2013-01-13 05:15:00,-0.5,-5.2,30.24,NNW,337,4.0,4.0,80,0.00,,,0.00,Wunderground v.1.15,2013-01-13 11:15:00,
2013-01-13 05:20:00,-0.5,-5.2,30.23,NW,315,4.0,8.0,80,0.00,,,0.00,Wunderground v.1.15,2013-01-13 11:20:00,
2013-01-13 05:25:00,-0.5,-5.2,30.24,NW,315,4.0,8.0,80,0.00,,,0.00,Wunderground v.1.15,2013-01-13 11:25:00,
2013-01-13 05:35:00,-0.4,-4.8,30.24,NNW,331,4.0,4.0,81,0.00,,,0.00,Wunderground v.1.15,2013-01-13 11:35:00,
2013-01-13 05:45:00,-0.2,-4.6,30.24,NNW,328,4.0,4.0,81,0.00,,,0.00,Wunderground v.1.15,2013-01-13 11:45:00,
2013-01-13 05:55:00,0.0,-4.4,30.25,NW,325,3.0,4.0,81,0.00,,,0.00,Wunderground v.1.15,2013-01-13 11:55:00,
2013-01-13 06:00:00,0.1,-4.1,30.25,NW,323,3.0,3.0,82,0.00,,,0.00,Wunderground v.1.15,2013-01-13 12:00:00,
2013-01-13 06:05:00,0.1,-4.1,30.25,NNW,336,3.0,3.0,82,0.00,,,0.00,Wunderground v.1.15,2013-01-13 12:05:00,
2013-01-13 06:14:00,0.1,-4.1,30.25,WNW,300,2.0,2.0,82,0.00,,,0.00,Wunderground v.1.15,2013-01-13 12:14:00,
2013-01-13 06:19:00,0.1,-4.3,30.26,WNW,299,3.0,3.0,81,0.00,,,0.00,Wunderground v.1.15,2013-01-13 12:19:00,
2013-01-13 06:25:00,0.1,-4.3,30.26,NNW,329,4.0,5.0,81,0.00,,,0.00,Wunderground v.1.15,2013-01-13 12:25:00,
2013-01-13 06:30:00,0.0,-4.4,30.26,NW,320,4.0,4.0,81,0.00,,,0.00,Wunderground v.1.15,2013-01-13 12:30:00,
2013-01-13 06:39:00,0.0,-4.2,30.27,NNW,330,3.0,3.0,82,0.00,,,0.00,Wunderground v.1.15,2013-01-13 12:39:00,
2013-01-13 06:45:00,0.1,-4.1,30.27,NW,323,2.0,4.0,82,0.00,,,0.00,Wunderground v.1.15,2013-01-13 12:45:00,
2013-01-13 06:50:00,0.1,-4.3,30.27,NW,305,3.0,3.0,81,0.00,,,0.00,Wunderground v.1.15,2013-01-13 12:50:00,
2013-01-13 07:00:00,0.1,-4.3,30.27,West,281,4.0,5.0,81,0.00,,,0.00,Wunderground v.1.15,2013-01-13 13:00:00,
2013-01-13 07:05:00,0.2,-4.3,30.27,NW,324,3.0,5.0,81,0.00,,,0.00,Wunderground v.1.15,2013-01-13 13:05:00,
2013-01-13 07:15:00,0.3,-4.2,30.28,North,354,4.0,6.0,81,0.00,,,0.00,Wunderground v.1.15,2013-01-13 13:15:00,
2013-01-13 07:20:00,0.3,-4.2,30.28,NNW,328,4.0,4.0,81,0.00,,,0.00,Wunderground v.1.15,2013-01-13 13:20:00,
2013-01-13 07:30:00,0.4,-4.3,30.28,NNW,344,5.0,5.0,80,0.00,,,0.00,Wunderground v.1.15,2013-01-13 13:30:00,
2013-01-13 07:35:00,0.5,-4.0,30.29,North,359,4.0,5.0,81,0.00,,,0.00,Wunderground v.1.15,2013-01-13 13:35:00,
2013-01-13 07:40:00,0.5,-4.0,30.28,NNE,29,4.0,4.0,81,0.00,,,0.00,Wunderground v.1.15,2013-01-13 13:40:00,
2013-01-13 07:50:00,0.6,-3.9,30.29,North,359,4.0,5.0,81,0.00,,,0.00,Wunderground v.1.15,2013-01-13 13:50:00,
2013-01-13 07:55:00,0.5,-4.2,30.29,North,359,4.0,5.0,80,0.00,,,0.00,Wunderground v.1.15,2013-01-13 13:55:00,
2013-01-13 08:05:00,0.8,-3.9,30.30,NE,42,2.0,4.0,80,0.00,,,0.00,Wunderground v.1.15,2013-01-13 14:05:00,
2013-01-13 08:14:00,1.0,-3.5,30.31,NNW,345,3.0,3.0,81,0.00,,,0.00,Wunderground v.1.15,2013-01-13 14:14:00,
2013-01-13 08:19:00,1.0,-3.5,30.31,NNW,331,3.0,4.0,81,0.00,,,0.00,Wunderground v.1.15,2013-01-13 14:19:00,
2013-01-13 08:25:00,1.1,-3.4,30.32,NW,310,3.0,4.0,81,0.00,,,0.00,Wunderground v.1.15,2013-01-13 14:25:00,
2013-01-13 08:30:00,1.0,-3.5,30.32,NNW,334,4.0,4.0,81,0.00,,,0.00,Wunderground v.1.15,2013-01-13 14:30:00,
2013-01-13 08:40:00,1.2,-3.3,30.32,NNW,328,3.0,3.0,81,0.00,,,0.00,Wunderground v.1.15,2013-01-13 14:40:00,
2013-01-13 08:45:00,1.3,-3.2,30.32,NNW,333,3.0,4.0,81,0.00,,,0.00,Wunderground v.1.15,2013-01-13 14:45:00,
2013-01-13 08:50:00,1.3,-3.2,30.32,WNW,299,3.0,3.0,81,0.00,,,0.00,Wunderground v.1.15,2013-01-13 14:50:00,
2013-01-13 09:00:00,1.4,-3.1,30.33,NNW,327,2.0,3.0,81,0.00,,,0.00,Wunderground v.1.15,2013-01-13 15:00:00,
2013-01-13 09:05:00,1.6,-2.9,30.33,North,354,2.0,6.0,81,0.00,,,0.00,Wunderground v.1.15,2013-01-13 15:05:00,
2013-01-13 09:15:00,1.8,-2.7,30.33,WNW,301,2.0,3.0,81,0.00,,,0.00,Wunderground v.1.15,2013-01-13 15:15:00,
2013-01-13 09:25:00,2.0,-2.5,30.33,NW,325,3.0,3.0,81,0.00,,,0.00,Wunderground v.1.15,2013-01-13 15:25:00,
2013-01-13 09:30:00,2.0,-2.8,30.33,NNW,335,3.0,3.0,80,0.00,,,0.00,Wunderground v.1.15,2013-01-13 15:30:00,
2013-01-13 09:35:00,2.1,-2.7,30.33,WNW,291,3.0,3.0,80,0.00,,,0.00,Wunderground v.1.15,2013-01-13 15:35:00,
2013-01-13 09:45:00,2.0,-2.8,30.34,West,278,3.0,7.0,80,0.00,,,0.00,Wunderground v.1.15,2013-01-13 15:45:00,
2013-01-13 09:50:00,2.0,-2.8,30.33,NW,314,4.0,4.0,80,0.00,,,0.00,Wunderground v.1.15,2013-01-13 15:50:00,
2013-01-13 10:00:00,2.3,-2.5,30.33,WNW,295,3.0,3.0,80,0.00,,,0.00,Wunderground v.1.15,2013-01-13 16:00:00,
2013-01-13 10:05:00,2.6,-2.2,30.33,NW,318,3.0,3.0,80,0.00,,,0.00,Wunderground v.1.15,2013-01-13 16:05:00,
2013-01-13 10:15:00,2.9,-2.1,30.33,WNW,288,2.0,5.0,79,0.00,,,0.00,Wunderground v.1.15,2013-01-13 16:15:00,
2013-01-13 10:20:00,2.7,-2.6,30.33,West,281,4.0,4.0,78,0.00,,,0.00,Wunderground v.1.15,2013-01-13 16:20:00,
2013-01-13 10:30:00,2.9,-2.1,30.32,West,270,3.0,3.0,79,0.00,,,0.00,Wunderground v.1.15,2013-01-13 16:30:00,
2013-01-13 10:35:00,2.9,-2.4,30.32,WNW,297,4.0,6.0,78,0.00,,,0.00,Wunderground v.1.15,2013-01-13 16:35:00,
2013-01-13 10:45:00,3.1,-1.9,30.31,NNW,328,4.0,7.0,79,0.00,,,0.00,Wunderground v.1.15,2013-01-13 16:45:00,
2013-01-13 10:50:00,3.1,-2.2,30.31,WNW,289,4.0,5.0,78,0.00,,,0.00,Wunderground v.1.15,2013-01-13 16:50:00,
2013-01-13 11:00:00,3.3,-2.0,30.30,North,8,4.0,4.0,78,0.00,,,0.00,Wunderground v.1.15,2013-01-13 17:00:00,
2013-01-13 11:05:00,3.3,-2.0,30.30,WNW,288,5.0,5.0,78,0.00,,,0.00,Wunderground v.1.15,2013-01-13 17:05:00,
2013-01-13 11:15:00,2.8,-2.8,30.30,WNW,289,6.0,6.0,77,0.00,,,0.00,Wunderground v.1.15,2013-01-13 17:15:00,
2013-01-13 11:20:00,3.1,-1.9,30.29,NW,318,5.0,6.0,79,0.00,,,0.00,Wunderground v.1.15,2013-01-13 17:20:00,
2013-01-13 11:30:00,3.2,-1.8,30.29,WNW,287,5.0,5.0,79,0.00,,,0.00,Wunderground v.1.15,2013-01-13 17:30:00,
2013-01-13 11:35:00,3.5,-1.6,30.29,WNW,293,4.0,5.0,79,0.00,,,0.00,Wunderground v.1.15,2013-01-13 17:35:00,
2013-01-13 11:40:00,3.8,-1.3,30.28,NNE,12,3.0,3.0,79,0.00,,,0.00,Wunderground v.1.15,2013-01-13 17:40:00,
2013-01-13 11:50:00,4.0,-1.3,30.28,NW,326,4.0,6.0,78,0.00,,,0.00,Wunderground v.1.15,2013-01-13 17:50:00,
2013-01-13 11:55:00,4.0,-1.6,30.28,WNW,285,5.0,6.0,77,0.00,,,0.00,Wunderground v.1.15,2013-01-13 17:55:00,
2013-01-13 12:05:00,4.2,-0.9,30.27,NW,310,6.0,9.0,79,0.00,,,0.00,Wunderground v.1.15,2013-01-13 18:05:00,
2013-01-13 12:15:00,4.6,-0.8,30.27,NNW,338,5.0,6.0,78,0.00,,,0.00,Wunderground v.1.15,2013-01-13 18:15:00,
2013-01-13 12:20:00,4.7,-0.9,30.27,NW,304,5.0,5.0,77,0.00,,,0.00,Wunderground v.1.15,2013-01-13 18:20:00,
2013-01-13 12:30:00,4.5,-0.6,30.27,NW,313,6.0,6.0,79,0.00,,,0.00,Wunderground v.1.15,2013-01-13 18:30:00,
2013-01-13 12:40:00,4.3,-0.8,30.27,NW,309,6.0,6.0,79,0.00,,,0.00,Wunderground v.1.15,2013-01-13 18:40:00,
2013-01-13 12:45:00,4.4,-0.9,30.27,NW,314,5.0,6.0,78,0.00,,,0.00,Wunderground v.1.15,2013-01-13 18:45:00,
2013-01-13 12:55:00,4.4,-0.9,30.27,WNW,284,6.0,7.0,78,0.00,,,0.00,Wunderground v.1.15,2013-01-13 18:55:00,
2013-01-13 13:00:00,4.5,-0.8,30.27,West,278,7.0,7.0,78,0.00,,,0.00,Wunderground v.1.15,2013-01-13 19:00:00,
2013-01-13 13:05:00,4.6,-0.8,30.27,WNW,301,6.0,7.0,78,0.00,,,0.00,Wunderground v.1.15,2013-01-13 19:05:00,
2013-01-13 13:15:00,5.2,-0.4,30.27,WNW,291,5.0,6.0,77,0.00,,,0.00,Wunderground v.1.15,2013-01-13 19:15:00,
2013-01-13 13:25:00,5.1,-0.3,30.27,West,277,6.0,9.0,78,0.00,,,0.00,Wunderground v.1.15,2013-01-13 19:25:00,
2013-01-13 13:30:00,5.1,-0.3,30.27,West,276,6.0,6.0,78,0.00,,,0.00,Wunderground v.1.15,2013-01-13 19:30:00,
2013-01-13 13:40:00,5.5,0.1,30.27,West,281,5.0,7.0,78,0.00,,,0.00,Wunderground v.1.15,2013-01-13 19:40:00,
2013-01-13 13:45:00,5.5,-0.1,30.27,WSW,246,5.0,7.0,77,0.00,,,0.00,Wunderground v.1.15,2013-01-13 19:45:00,
2013-01-13 13:55:00,5.9,0.2,30.28,West,280,6.0,7.0,77,0.00,,,0.00,Wunderground v.1.15,2013-01-13 19:55:00,
2013-01-13 14:00:00,5.9,0.2,30.28,WNW,286,7.0,7.0,77,0.00,,,0.00,Wunderground v.1.15,2013-01-13 20:00:00,
2013-01-13 14:05:00,5.5,-0.1,30.28,West,280,6.0,7.0,77,0.00,,,0.00,Wunderground v.1.15,2013-01-13 20:05:00,
2013-01-13 14:14:00,5.1,-0.3,30.28,WNW,303,7.0,10.0,78,0.00,,,0.00,Wunderground v.1.15,2013-01-13 20:14:00,
2013-01-13 14:20:00,5.0,-0.6,30.28,West,280,7.0,9.0,77,0.00,,,0.00,Wunderground v.1.15,2013-01-13 20:20:00,
2013-01-13 14:25:00,4.6,-1.0,30.29,West,276,8.0,10.0,77,0.00,,,0.00,Wunderground v.1.15,2013-01-13 20:25:00,
2013-01-13 14:35:00,4.6,-0.8,30.30,NW,326,7.0,8.0,78,0.00,,,0.00,Wunderground v.1.15,2013-01-13 20:35:00,
2013-01-13 14:40:00,4.5,-0.8,30.30,West,268,7.0,9.0,78,0.00,,,0.00,Wunderground v.1.15,2013-01-13 20:40:00,
2013-01-13 14:45:00,4.5,-0.8,30.30,NNW,342,7.0,9.0,78,0.00,,,0.00,Wunderground v.1.15,2013-01-13 20:45:00,
2013-01-13 14:55:00,4.9,-0.7,30.30,NW,305,6.0,7.0,77,0.00,,,0.00,Wunderground v.1.15,2013-01-13 20:55:00,
2013-01-13 15:00:00,4.7,-0.9,30.30,WNW,299,6.0,6.0,77,0.00,,,0.00,Wunderground v.1.15,2013-01-13 21:00:00,
2013-01-13 15:05:00,4.8,-0.6,30.31,WSW,254,7.0,9.0,78,0.00,,,0.00,Wunderground v.1.15,2013-01-13 21:05:00,
2013-01-13 15:14:00,5.0,-0.6,30.31,West,269,6.0,11.0,77,0.00,,,0.00,Wunderground v.1.15,2013-01-13 21:14:00,
2013-01-13 15:20:00,5.0,-0.4,30.31,West,275,7.0,7.0,78,0.00,,,0.00,Wunderground v.1.15,2013-01-13 21:20:00,
2013-01-13 15:25:00,5.3,-0.1,30.32,WNW,289,6.0,7.0,78,0.00,,,0.00,Wunderground v.1.15,2013-01-13 21:25:00,
2013-01-13 15:30:00,5.2,0.1,30.32,West,275,6.0,7.0,79,0.00,,,0.00,Wunderground v.1.15,2013-01-13 21:30:00,
2013-01-13 15:40:00,4.9,-0.2,30.32,West,280,7.0,7.0,79,0.00,,,0.00,Wunderground v.1.15,2013-01-13 21:40:00,
2013-01-13 15:45:00,5.2,0.1,30.32,West,276,6.0,7.0,79,0.00,,,0.00,Wunderground v.1.15,2013-01-13 21:45:00,
2013-01-13 15:55:00,5.0,-0.1,30.33,West,276,7.0,7.0,79,0.00,,,0.00,Wunderground v.1.15,2013-01-13 21:55:00,
2013-01-13 16:05:00,4.8,-0.3,30.33,West,268,7.0,9.0,79,0.00,,,0.00,Wunderground v.1.15,2013-01-13 22:05:00,
2013-01-13 16:15:00,4.7,-0.4,30.33,West,272,7.0,8.0,79,0.00,,,0.00,Wunderground v.1.15,2013-01-13 22:15:00,
2013-01-13 16:20:00,4.7,-0.4,30.33,West,276,7.0,7.0,79,0.00,,,0.00,Wunderground v.1.15,2013-01-13 22:20:00,
2013-01-13 16:25:00,4.7,-0.4,30.33,West,270,6.0,7.0,79,0.00,,,0.00,Wunderground v.1.15,2013-01-13 22:25:00,
2013-01-13 16:35:00,4.8,-0.3,30.33,West,279,6.0,8.0,79,0.00,,,0.00,Wunderground v.1.15,2013-01-13 22:35:00,
2013-01-13 16:40:00,4.8,-0.3,30.34,West,263,6.0,10.0,79,0.00,,,0.00,Wunderground v.1.15,2013-01-13 22:40:00,
2013-01-13 16:50:00,4.8,0.0,30.34,West,272,5.0,5.0,80,0.00,,,0.00,Wunderground v.1.15,2013-01-13 22:50:00,
2013-01-13 16:55:00,4.8,0.0,30.34,West,273,5.0,7.0,80,0.00,,,0.00,Wunderground v.1.15,2013-01-13 22:55:00,
2013-01-13 17:05:00,4.8,0.0,30.34,West,273,6.0,6.0,80,0.00,,,0.00,Wunderground v.1.15,2013-01-13 23:05:00,
2013-01-13 17:15:00,4.8,0.0,30.34,West,275,4.0,5.0,80,0.00,,,0.00,Wunderground v.1.15,2013-01-13 23:15:00,
2013-01-13 17:20:00,4.9,0.1,30.34,West,280,4.0,4.0,80,0.00,,,0.00,Wunderground v.1.15,2013-01-13 23:20:00,
2013-01-13 17:30:00,4.8,0.0,30.34,West,270,5.0,5.0,80,0.00,,,0.00,Wunderground v.1.15,2013-01-13 23:30:00,
2013-01-13 17:35:00,4.8,0.0,30.34,West,273,5.0,5.0,80,0.00,,,0.00,Wunderground v.1.15,2013-01-13 23:35:00,
2013-01-13 17:45:00,4.8,0.0,30.35,West,269,5.0,5.0,80,0.00,,,0.00,Wunderground v.1.15,2013-01-13 23:45:00,
2013-01-13 17:50:00,4.8,0.0,30.35,West,265,5.0,5.0,80,0.00,,,0.00,Wunderground v.1.15,2013-01-13 23:50:00,
2013-01-13 17:55:00,4.7,-0.1,30.35,West,281,5.0,5.0,80,0.00,,,0.00,Wunderground v.1.15,2013-01-13 23:55:00,
2013-01-13 18:00:00,4.7,-0.1,30.35,WNW,295,4.0,4.0,80,0.00,,,0.00,Wunderground v.1.15,2013-01-14 00:00:00,
2013-01-13 18:05:00,4.6,-0.2,30.35,WNW,282,4.0,4.0,80,0.00,,,0.00,Wunderground v.1.15,2013-01-14 00:05:00,
2013-01-13 18:14:00,4.6,-0.2,30.35,West,269,4.0,4.0,80,0.00,,,0.00,Wunderground v.1.15,2013-01-14 00:14:00,
2013-01-13 18:20:00,4.6,0.1,30.35,WNW,297,4.0,5.0,81,0.00,,,0.00,Wunderground v.1.15,2013-01-14 00:20:00,
2013-01-13 18:25:00,4.7,0.2,30.35,West,279,3.0,5.0,81,0.00,,,0.00,Wunderground v.1.15,2013-01-14 00:25:00,
2013-01-13 18:35:00,4.8,0.2,30.35,WSW,258,4.0,5.0,81,0.00,,,0.00,Wunderground v.1.15,2013-01-14 00:35:00,
2013-01-13 18:40:00,4.9,0.3,30.36,West,277,4.0,5.0,81,0.00,,,0.00,Wunderground v.1.15,2013-01-14 00:40:00,
2013-01-13 18:45:00,5.1,0.5,30.36,West,275,5.0,5.0,81,0.00,,,0.00,Wunderground v.1.15,2013-01-14 00:45:00,
2013-01-13 18:55:00,5.3,0.7,30.36,WNW,285,3.0,4.0,81,0.00,,,0.00,Wunderground v.1.15,2013-01-14 00:55:00,
2013-01-13 19:00:00,5.4,0.8,30.36,West,277,4.0,4.0,81,0.00,,,0.00,Wunderground v.1.15,2013-01-14 01:00:00,
2013-01-13 19:05:00,5.3,0.7,30.36,West,270,4.0,4.0,81,0.00,,,0.00,Wunderground v.1.15,2013-01-14 01:05:00,
2013-01-13 19:14:00,5.4,0.8,30.36,West,274,4.0,4.0,81,0.00,,,0.00,Wunderground v.1.15,2013-01-14 01:14:00,
2013-01-13 19:20:00,5.4,0.8,30.36,WSW,256,4.0,4.0,81,0.00,,,0.00,Wunderground v.1.15,2013-01-14 01:20:00,
2013-01-13 19:30:00,5.2,0.6,30.37,West,280,4.0,5.0,81,0.00,,,0.00,Wunderground v.1.15,2013-01-14 01:30:00,
2013-01-13 19:35:00,5.2,0.6,30.37,West,262,4.0,5.0,81,0.00,,,0.00,Wunderground v.1.15,2013-01-14 01:35:00,
2013-01-13 19:40:00,5.2,0.6,30.37,West,259,4.0,4.0,81,0.00,,,0.00,Wunderground v.1.15,2013-01-14 01:40:00,
2013-01-13 19:50:00,5.3,0.7,30.37,WSW,246,4.0,4.0,81,0.00,,,0.00,Wunderground v.1.15,2013-01-14 01:50:00,
2013-01-13 19:55:00,5.4,1.1,30.37,WSW,249,3.0,5.0,82,0.00,,,0.00,Wunderground v.1.15,2013-01-14 01:55:00,
2013-01-13 20:05:00,5.5,1.2,30.37,WSW,239,4.0,4.0,82,0.00,,,0.00,Wunderground v.1.15,2013-01-14 02:05:00,
2013-01-13 20:15:00,5.5,0.9,30.37,West,266,3.0,4.0,81,0.00,,,0.00,Wunderground v.1.15,2013-01-14 02:15:00,
2013-01-13 20:25:00,5.5,1.2,30.37,West,268,2.0,3.0,82,0.00,,,0.00,Wunderground v.1.15,2013-01-14 02:25:00,
2013-01-13 20:30:00,5.5,0.9,30.37,WSW,253,2.0,2.0,81,0.00,,,0.00,Wunderground v.1.15,2013-01-14 02:30:00,
2013-01-13 20:39:00,5.6,1.0,30.37,WSW,243,3.0,3.0,81,0.00,,,0.00,Wunderground v.1.15,2013-01-14 02:39:00,
2013-01-13 20:45:00,5.6,1.0,30.38,SW,228,3.0,3.0,81,0.00,,,0.00,Wunderground v.1.15,2013-01-14 02:45:00,
2013-01-13 20:50:00,5.4,0.8,30.38,SW,232,2.0,2.0,81,0.00,,,0.00,Wunderground v.1.15,2013-01-14 02:50:00,
2013-01-13 21:00:00,5.1,0.5,30.38,WSW,247,3.0,3.0,81,0.00,,,0.00,Wunderground v.1.15,2013-01-14 03:00:00,
2013-01-13 21:05:00,5.1,0.5,30.38,SW,233,2.0,3.0,81,0.00,,,0.00,Wunderground v.1.15,2013-01-14 03:05:00,
2013-01-13 21:15:00,5.1,0.5,30.38,WSW,237,3.0,3.0,81,0.00,,,0.00,Wunderground v.1.15,2013-01-14 03:15:00,
2013-01-13 21:25:00,5.2,0.6,30.38,West,277,3.0,5.0,81,0.00,,,0.00,Wunderground v.1.15,2013-01-14 03:25:00,
2013-01-13 21:30:00,5.1,0.5,30.38,West,267,3.0,4.0,81,0.00,,,0.00,Wunderground v.1.15,2013-01-14 03:30:00,
2013-01-13 21:40:00,4.9,0.3,30.38,WNW,290,2.0,2.0,81,0.00,,,0.00,Wunderground v.1.15,2013-01-14 03:40:00,
2013-01-13 21:45:00,4.9,0.6,30.38,WSW,256,2.0,2.0,82,0.00,,,0.00,Wunderground v.1.15,2013-01-14 03:45:00,
2013-01-13 21:55:00,4.9,0.6,30.38,WSW,242,3.0,3.0,82,0.00,,,0.00,Wunderground v.1.15,2013-01-14 03:55:00,
2013-01-13 22:00:00,4.9,0.6,30.38,WSW,238,3.0,3.0,82,0.00,,,0.00,Wunderground v.1.15,2013-01-14 04:00:00,
2013-01-13 22:05:00,5.0,1.0,30.39,WSW,237,3.0,3.0,83,0.00,,,0.00,Wunderground v.1.15,2013-01-14 04:05:00,
2013-01-13 22:14:00,4.9,0.9,30.39,SW,222,3.0,4.0,83,0.00,,,0.00,Wunderground v.1.15,2013-01-14 04:14:00,
2013-01-13 22:20:00,4.7,0.4,30.39,West,263,3.0,3.0,82,0.00,,,0.00,Wunderground v.1.15,2013-01-14 04:20:00,
2013-01-13 22:25:00,4.7,0.7,30.39,West,262,3.0,3.0,83,0.00,,,0.00,Wunderground v.1.15,2013-01-14 04:25:00,
2013-01-13 22:35:00,4.7,0.7,30.39,West,270,3.0,3.0,83,0.00,,,0.00,Wunderground v.1.15,2013-01-14 04:35:00,
2013-01-13 22:40:00,4.7,0.7,30.40,West,280,3.0,4.0,83,0.00,,,0.00,Wunderground v.1.15,2013-01-14 04:40:00,
2013-01-13 22:50:00,4.7,0.9,30.40,West,271,2.0,2.0,84,0.00,,,0.00,Wunderground v.1.15,2013-01-14 04:50:00,
2013-01-13 22:55:00,4.6,0.8,30.40,West,261,2.0,3.0,84,0.00,,,0.00,Wunderground v.1.15,2013-01-14 04:55:00,
2013-01-13 23:01:00,4.6,0.8,30.40,West,263,2.0,2.0,84,0.00,,,0.00,Wunderground v.1.15,2013-01-14 05:01:00,
2013-01-13 23:05:00,4.7,0.9,30.39,WSW,254,2.0,3.0,84,0.00,,,0.00,Wunderground v.1.15,2013-01-14 05:05:00,
2013-01-13 23:15:00,4.8,1.0,30.40,WSW,258,3.0,3.0,84,0.00,,,0.00,Wunderground v.1.15,2013-01-14 05:15:00,
2013-01-13 23:25:00,4.8,1.0,30.40,West,267,3.0,4.0,84,0.00,,,0.00,Wunderground v.1.15,2013-01-14 05:25:00,
2013-01-13 23:30:00,4.8,1.0,30.40,WSW,248,3.0,3.0,84,0.00,,,0.00,Wunderground v.1.15,2013-01-14 05:30:00,
2013-01-13 23:40:00,4.6,0.8,30.40,WSW,256,3.0,3.0,84,0.00,,,0.00,Wunderground v.1.15,2013-01-14 05:40:00,
2013-01-13 23:45:00,4.6,0.8,30.41,WSW,248,3.0,5.0,84,0.00,,,0.00,Wunderground v.1.15,2013-01-14 05:45:00,
2013-01-13 23:55:00,4.5,0.7,30.41,WSW,239,4.0,5.0,84,0.00,,,0.00,Wunderground v.1.15,2013-01-14 05:55:00,